Wallblake, Anguilla

6:47 AM AST on July 25, 2014 (GMT -0400)
Concordia (ISAINTMA3) Elev 85 ft | 18.07 °N, 63.07 °W | Change Station

Current weather conditions updated 10 seconds ago

Scattered Clouds
Scattered Clouds
82.0 °F
Feels Like 88 °F
N
3.8
Wind Variable Wind from NE
Gusts 3.8 mph

Today is forecast to be Much Cooler than yesterday.

Today
High -- | Low -- °F
--% Chance of Precip.
Yesterday
High -- | Low -- °F
Precip. -- in
5:48 AM 6:49 PM
Waning Crescent, 2% visible
Pressure 30.04 in
Visibility 6.2 miles
Clouds Scattered Clouds 1800 ft
Scattered Clouds 3800 ft
Heat Index 88 °F
Dew Point 74 °F
Humidity 78%
Rainfall 0.00 in
Snow Depth Not available.
UV 0 out of 12
Pollen Not available.
Air Quality Not available.
Flu Activity Not available.
METAR TNCM 251000Z 09011KT 050V130 9999 SCT018 SCT038 28/23 Q1017 A30 05 NOSIG

More Conditions Fewer Conditions

Pressure 30.04 in
Visibility 6.2 miles
Clouds Scattered Clouds 1800 ft
Scattered Clouds 3800 ft
Heat Index 88 °F
Dew Point 74 °F
Humidity 78%
Rainfall 0.00 in
Snow Depth Not available.
UV 0 out of 12
Pollen Not available.
Air Quality Not available.
Flu Activity Not available.
METAR TNCM 251000Z 09011KT 050V130 9999 SCT018 SCT038 28/23 Q1017 A30 05 NOSIG

More Conditions Fewer Conditions

10-Day Weather Forecast

Almanac

Astronomy

Jul. 25, 2014 Rise Set
Actual Time 5:48 AM AST 6:49 PM AST
Civil Twilight 5:24 AM AST 7:12 PM AST
Nautical Twilight 4:56 AM AST 7:40 PM AST
Astronomical Twilight 4:28 AM AST 8:08 PM AST
Moon 4:39 AM AST 5:50 PM AST
Length of Visible Light 13h 48m
Length of Day
13h 01m
Tomorrow will be 0m 40s shorter.
Waning Crescent, 2% of the Moon is Illuminated
Today
Waning Crescent
Jul 26
New
Aug 3
First Quarter
Aug 10
Full
Aug 17
Last Quarter

Yesterday's Extremes

Country Highs Country Lows

Community

WunderPhotos

Upload Photos

1,737,279 photos uploaded!

Nearby

Snow Depth

Not available.

Earthquake Activity

City Distance Mag. Time & Date
No recent earthquake activity has been reported nearby.
Minimum magnitude displayed is 2.5.

Coastal Water Temperatures

Place Temperature
No Stations Reporting

Nearby Weather Stations

Station Location Temp. Heat Index Dew Point Humidity Wind Precip. Elev Updated Type
Concordia, Saint-Martin 82.0 °F 88 °F 74 °F 78% NE  at  3.8 mph 0.00 in / hr 85 ft 6:47 AM AST Rapid Fire
Cole Bay, St.Maarten, Cole Bay 80.7 °F 86 °F 75 °F 83% WNW  at  3.0 mph 0.00 in / hr 171 ft 6:45 AM AST Normal

Show More Stations Show Fewer Stations